sensor_id;sensor_type;location;lat;lon;timestamp;temperature;humidity
16287;DHT22;8251;53.568;10.018;2023-07-09T00:00:54;24.20;57.70
16287;DHT22;8251;53.568;10.018;2023-07-09T00:03:22;24.20;57.70
16287;DHT22;8251;53.568;10.018;2023-07-09T00:05:49;24.20;57.90
16287;DHT22;8251;53.568;10.018;2023-07-09T00:08:25;24.20;57.90
16287;DHT22;8251;53.568;10.018;2023-07-09T00:10:55;24.10;57.90
16287;DHT22;8251;53.568;10.018;2023-07-09T00:13:23;24.10;58.00
16287;DHT22;8251;53.568;10.018;2023-07-09T00:15:51;24.10;58.00
16287;DHT22;8251;53.568;10.018;2023-07-09T00:18:18;24.10;58.00
16287;DHT22;8251;53.568;10.018;2023-07-09T00:20:45;24.00;58.00
16287;DHT22;8251;53.568;10.018;2023-07-09T00:23:14;24.00;58.00
16287;DHT22;8251;53.568;10.018;2023-07-09T00:25:42;24.00;58.00
16287;DHT22;8251;53.568;10.018;2023-07-09T00:28:13;24.00;58.00
16287;DHT22;8251;53.568;10.018;2023-07-09T00:30:41;24.00;57.90
16287;DHT22;8251;53.568;10.018;2023-07-09T00:33:11;23.90;57.90
16287;DHT22;8251;53.568;10.018;2023-07-09T00:35:40;23.90;58.00
16287;DHT22;8251;53.568;10.018;2023-07-09T00:38:13;23.90;58.00
16287;DHT22;8251;53.568;10.018;2023-07-09T00:40:46;23.90;58.00
16287;DHT22;8251;53.568;10.018;2023-07-09T00:43:16;23.90;58.00
16287;DHT22;8251;53.568;10.018;2023-07-09T00:45:43;23.80;57.80
16287;DHT22;8251;53.568;10.018;2023-07-09T00:48:13;23.80;57.80
16287;DHT22;8251;53.568;10.018;2023-07-09T00:50:46;23.80;57.80
16287;DHT22;8251;53.568;10.018;2023-07-09T00:53:18;23.70;57.90
16287;DHT22;8251;53.568;10.018;2023-07-09T00:55:52;23.70;57.90
16287;DHT22;8251;53.568;10.018;2023-07-09T00:58:24;23.70;57.80
16287;DHT22;8251;53.568;10.018;2023-07-09T01:00:56;23.70;57.90
16287;DHT22;8251;53.568;10.018;2023-07-09T01:03:29;23.70;57.80
16287;DHT22;8251;53.568;10.018;2023-07-09T01:05:58;23.60;57.70
16287;DHT22;8251;53.568;10.018;2023-07-09T01:08:27;23.60;57.70
16287;DHT22;8251;53.568;10.018;2023-07-09T01:10:56;23.60;57.80
16287;DHT22;8251;53.568;10.018;2023-07-09T01:13:26;23.60;57.80
16287;DHT22;8251;53.568;10.018;2023-07-09T01:15:54;23.60;57.80
16287;DHT22;8251;53.568;10.018;2023-07-09T01:18:22;23.50;57.70
16287;DHT22;8251;53.568;10.018;2023-07-09T01:20:50;23.50;57.70
16287;DHT22;8251;53.568;10.018;2023-07-09T01:23:19;23.50;57.70
16287;DHT22;8251;53.568;10.018;2023-07-09T01:25:50;23.40;57.60
16287;DHT22;8251;53.568;10.018;2023-07-09T01:28:18;23.40;57.70
16287;DHT22;8251;53.568;10.018;2023-07-09T01:30:46;23.30;57.60
16287;DHT22;8251;53.568;10.018;2023-07-09T01:33:15;23.30;57.60
16287;DHT22;8251;53.568;10.018;2023-07-09T01:35:43;23.30;57.60
16287;DHT22;8251;53.568;10.018;2023-07-09T01:38:10;23.30;57.60
16287;DHT22;8251;53.568;10.018;2023-07-09T01:40:38;23.30;57.60
16287;DHT22;8251;53.568;10.018;2023-07-09T01:43:05;23.30;57.60
16287;DHT22;8251;53.568;10.018;2023-07-09T01:45:34;23.30;57.70
16287;DHT22;8251;53.568;10.018;2023-07-09T01:48:02;23.30;57.60
16287;DHT22;8251;53.568;10.018;2023-07-09T01:50:29;23.20;57.50
16287;DHT22;8251;53.568;10.018;2023-07-09T01:52:56;23.20;57.50
16287;DHT22;8251;53.568;10.018;2023-07-09T01:55:24;23.20;57.50
16287;DHT22;8251;53.568;10.018;2023-07-09T01:57:52;23.20;57.40
16287;DHT22;8251;53.568;10.018;2023-07-09T02:00:19;23.20;57.40
16287;DHT22;8251;53.568;10.018;2023-07-09T02:02:47;23.20;57.40
16287;DHT22;8251;53.568;10.018;2023-07-09T02:05:16;23.10;57.40
16287;DHT22;8251;53.568;10.018;2023-07-09T02:07:44;23.10;57.40
16287;DHT22;8251;53.568;10.018;2023-07-09T02:10:12;23.10;57.40
16287;DHT22;8251;53.568;10.018;2023-07-09T02:12:39;23.10;57.30
16287;DHT22;8251;53.568;10.018;2023-07-09T02:15:09;23.10;57.20
16287;DHT22;8251;53.568;10.018;2023-07-09T02:17:36;23.10;57.30
16287;DHT22;8251;53.568;10.018;2023-07-09T02:20:04;23.10;57.20
16287;DHT22;8251;53.568;10.018;2023-07-09T02:22:32;23.00;57.10
16287;DHT22;8251;53.568;10.018;2023-07-09T02:24:59;23.00;57.20
16287;DHT22;8251;53.568;10.018;2023-07-09T02:27:26;22.90;57.10
16287;DHT22;8251;53.568;10.018;2023-07-09T02:29:54;22.90;57.10
16287;DHT22;8251;53.568;10.018;2023-07-09T02:32:23;22.90;57.10
16287;DHT22;8251;53.568;10.018;2023-07-09T02:34:52;22.90;57.10
16287;DHT22;8251;53.568;10.018;2023-07-09T02:37:21;22.90;57.20
16287;DHT22;8251;53.568;10.018;2023-07-09T02:39:48;22.90;57.10
16287;DHT22;8251;53.568;10.018;2023-07-09T02:42:17;22.90;57.10
16287;DHT22;8251;53.568;10.018;2023-07-09T02:44:45;22.90;57.10
16287;DHT22;8251;53.568;10.018;2023-07-09T02:47:13;22.90;57.00
16287;DHT22;8251;53.568;10.018;2023-07-09T02:49:41;22.80;56.90
16287;DHT22;8251;53.568;10.018;2023-07-09T02:52:08;22.80;56.90
16287;DHT22;8251;53.568;10.018;2023-07-09T02:54:35;22.80;57.00
16287;DHT22;8251;53.568;10.018;2023-07-09T02:57:03;22.70;57.00
16287;DHT22;8251;53.568;10.018;2023-07-09T02:59:30;22.70;57.00
16287;DHT22;8251;53.568;10.018;2023-07-09T03:02:00;22.70;57.00
16287;DHT22;8251;53.568;10.018;2023-07-09T03:04:29;22.70;57.00
16287;DHT22;8251;53.568;10.018;2023-07-09T03:06:58;22.70;57.60
16287;DHT22;8251;53.568;10.018;2023-07-09T03:09:26;22.70;57.00
16287;DHT22;8251;53.568;10.018;2023-07-09T03:11:53;22.70;57.00
16287;DHT22;8251;53.568;10.018;2023-07-09T03:14:20;22.70;57.00
16287;DHT22;8251;53.568;10.018;2023-07-09T03:16:47;22.60;56.90
16287;DHT22;8251;53.568;10.018;2023-07-09T03:19:15;22.60;56.90
16287;DHT22;8251;53.568;10.018;2023-07-09T03:21:41;22.60;57.00
16287;DHT22;8251;53.568;10.018;2023-07-09T03:24:10;22.60;57.00
16287;DHT22;8251;53.568;10.018;2023-07-09T03:26:36;22.60;57.00
16287;DHT22;8251;53.568;10.018;2023-07-09T03:29:03;22.50;57.10
16287;DHT22;8251;53.568;10.018;2023-07-09T03:31:30;22.60;57.10
16287;DHT22;8251;53.568;10.018;2023-07-09T03:34:00;22.50;57.00
16287;DHT22;8251;53.568;10.018;2023-07-09T03:36:27;22.50;57.00
16287;DHT22;8251;53.568;10.018;2023-07-09T03:38:54;22.50;57.00
16287;DHT22;8251;53.568;10.018;2023-07-09T03:41:23;22.60;57.00
16287;DHT22;8251;53.568;10.018;2023-07-09T03:43:51;22.50;56.90
16287;DHT22;8251;53.568;10.018;2023-07-09T03:46:18;22.50;56.80
16287;DHT22;8251;53.568;10.018;2023-07-09T03:48:45;22.50;56.80
16287;DHT22;8251;53.568;10.018;2023-07-09T03:51:12;22.50;56.80
16287;DHT22;8251;53.568;10.018;2023-07-09T03:53:39;22.50;56.70
16287;DHT22;8251;53.568;10.018;2023-07-09T03:56:06;22.50;56.80
16287;DHT22;8251;53.568;10.018;2023-07-09T03:58:35;22.50;56.80
16287;DHT22;8251;53.568;10.018;2023-07-09T04:01:02;22.50;56.70
16287;DHT22;8251;53.568;10.018;2023-07-09T04:03:29;22.50;56.80
16287;DHT22;8251;53.568;10.018;2023-07-09T04:05:56;22.50;56.70
16287;DHT22;8251;53.568;10.018;2023-07-09T04:08:23;22.50;56.70
16287;DHT22;8251;53.568;10.018;2023-07-09T04:10:53;22.50;56.70
16287;DHT22;8251;53.568;10.018;2023-07-09T04:13:20;22.50;56.70
16287;DHT22;8251;53.568;10.018;2023-07-09T04:15:49;22.50;56.70
16287;DHT22;8251;53.568;10.018;2023-07-09T04:18:15;22.50;56.60
16287;DHT22;8251;53.568;10.018;2023-07-09T04:20:42;22.50;56.60
16287;DHT22;8251;53.568;10.018;2023-07-09T04:23:10;22.50;57.10
16287;DHT22;8251;53.568;10.018;2023-07-09T04:25:38;22.50;56.30
16287;DHT22;8251;53.568;10.018;2023-07-09T04:28:05;22.50;56.30
16287;DHT22;8251;53.568;10.018;2023-07-09T04:30:32;22.50;56.30
16287;DHT22;8251;53.568;10.018;2023-07-09T04:33:00;22.50;56.40
16287;DHT22;8251;53.568;10.018;2023-07-09T04:35:27;22.50;56.50
16287;DHT22;8251;53.568;10.018;2023-07-09T04:37:54;22.50;56.50
16287;DHT22;8251;53.568;10.018;2023-07-09T04:40:20;22.50;57.20
16287;DHT22;8251;53.568;10.018;2023-07-09T04:42:48;22.50;56.60
16287;DHT22;8251;53.568;10.018;2023-07-09T04:45:15;22.50;56.30
16287;DHT22;8251;53.568;10.018;2023-07-09T04:47:42;22.50;56.10
16287;DHT22;8251;53.568;10.018;2023-07-09T04:50:11;22.50;56.10
16287;DHT22;8251;53.568;10.018;2023-07-09T04:52:39;22.50;56.10
16287;DHT22;8251;53.568;10.018;2023-07-09T04:55:06;22.50;56.10
16287;DHT22;8251;53.568;10.018;2023-07-09T04:57:34;22.60;56.10
16287;DHT22;8251;53.568;10.018;2023-07-09T05:00:01;22.60;56.10
16287;DHT22;8251;53.568;10.018;2023-07-09T05:02:30;22.60;56.00
16287;DHT22;8251;53.568;10.018;2023-07-09T05:04:58;22.60;55.60
16287;DHT22;8251;53.568;10.018;2023-07-09T05:07:27;22.70;55.60
16287;DHT22;8251;53.568;10.018;2023-07-09T05:09:54;22.70;55.50
16287;DHT22;8251;53.568;10.018;2023-07-09T05:12:20;22.70;55.50
16287;DHT22;8251;53.568;10.018;2023-07-09T05:14:47;22.70;55.40
16287;DHT22;8251;53.568;10.018;2023-07-09T05:17:14;22.70;55.60
16287;DHT22;8251;53.568;10.018;2023-07-09T05:19:41;22.80;56.20
16287;DHT22;8251;53.568;10.018;2023-07-09T05:22:08;22.80;55.30
16287;DHT22;8251;53.568;10.018;2023-07-09T05:24:36;22.80;55.20
16287;DHT22;8251;53.568;10.018;2023-07-09T05:27:04;22.90;55.30
16287;DHT22;8251;53.568;10.018;2023-07-09T05:29:31;22.90;55.30
16287;DHT22;8251;53.568;10.018;2023-07-09T05:31:57;23.00;55.30
16287;DHT22;8251;53.568;10.018;2023-07-09T05:34:24;23.00;55.20
16287;DHT22;8251;53.568;10.018;2023-07-09T05:36:51;23.10;55.10
16287;DHT22;8251;53.568;10.018;2023-07-09T05:39:18;23.10;54.90
16287;DHT22;8251;53.568;10.018;2023-07-09T05:41:46;23.20;54.80
16287;DHT22;8251;53.568;10.018;2023-07-09T05:44:13;23.20;54.60
16287;DHT22;8251;53.568;10.018;2023-07-09T05:46:40;23.20;54.70
16287;DHT22;8251;53.568;10.018;2023-07-09T05:49:07;23.30;55.20
16287;DHT22;8251;53.568;10.018;2023-07-09T05:51:35;23.30;54.80
16287;DHT22;8251;53.568;10.018;2023-07-09T05:54:03;23.40;55.00
16287;DHT22;8251;53.568;10.018;2023-07-09T05:56:30;23.40;54.80
16287;DHT22;8251;53.568;10.018;2023-07-09T05:58:58;23.50;54.80
16287;DHT22;8251;53.568;10.018;2023-07-09T06:01:25;23.60;55.00
16287;DHT22;8251;53.568;10.018;2023-07-09T06:03:52;23.70;54.70
16287;DHT22;8251;53.568;10.018;2023-07-09T06:06:20;23.70;54.80
16287;DHT22;8251;53.568;10.018;2023-07-09T06:08:47;23.70;54.80
16287;DHT22;8251;53.568;10.018;2023-07-09T06:11:15;23.80;54.40
16287;DHT22;8251;53.568;10.018;2023-07-09T06:13:43;23.80;54.50
16287;DHT22;8251;53.568;10.018;2023-07-09T06:16:11;23.90;54.50
16287;DHT22;8251;53.568;10.018;2023-07-09T06:18:38;23.90;54.40
16287;DHT22;8251;53.568;10.018;2023-07-09T06:21:06;24.00;54.60
16287;DHT22;8251;53.568;10.018;2023-07-09T06:23:35;24.10;54.90
16287;DHT22;8251;53.568;10.018;2023-07-09T06:26:02;24.20;54.70
16287;DHT22;8251;53.568;10.018;2023-07-09T06:28:30;24.20;54.60
16287;DHT22;8251;53.568;10.018;2023-07-09T06:30:57;24.20;54.20
16287;DHT22;8251;53.568;10.018;2023-07-09T06:33:26;24.30;54.00
16287;DHT22;8251;53.568;10.018;2023-07-09T06:35:55;24.40;54.10
16287;DHT22;8251;53.568;10.018;2023-07-09T06:38:22;24.50;54.30
16287;DHT22;8251;53.568;10.018;2023-07-09T06:40:50;24.50;54.20
16287;DHT22;8251;53.568;10.018;2023-07-09T06:43:17;24.60;54.10
16287;DHT22;8251;53.568;10.018;2023-07-09T06:45:51;24.70;54.20
16287;DHT22;8251;53.568;10.018;2023-07-09T06:48:19;24.70;54.00
16287;DHT22;8251;53.568;10.018;2023-07-09T06:50:47;24.80;54.00
16287;DHT22;8251;53.568;10.018;2023-07-09T06:53:14;24.90;54.00
16287;DHT22;8251;53.568;10.018;2023-07-09T06:55:41;25.00;54.00
16287;DHT22;8251;53.568;10.018;2023-07-09T06:58:08;25.10;53.70
16287;DHT22;8251;53.568;10.018;2023-07-09T07:00:35;25.20;53.30
16287;DHT22;8251;53.568;10.018;2023-07-09T07:03:03;25.20;53.30
16287;DHT22;8251;53.568;10.018;2023-07-09T07:05:30;25.30;53.70
16287;DHT22;8251;53.568;10.018;2023-07-09T07:07:59;25.40;53.70
16287;DHT22;8251;53.568;10.018;2023-07-09T07:10:26;25.50;53.20
16287;DHT22;8251;53.568;10.018;2023-07-09T07:12:53;25.60;52.50
16287;DHT22;8251;53.568;10.018;2023-07-09T07:15:21;25.70;52.40
16287;DHT22;8251;53.568;10.018;2023-07-09T07:17:48;25.80;52.30
16287;DHT22;8251;53.568;10.018;2023-07-09T07:20:18;25.80;52.20
16287;DHT22;8251;53.568;10.018;2023-07-09T07:22:45;25.90;52.30
16287;DHT22;8251;53.568;10.018;2023-07-09T07:25:13;26.00;51.90
16287;DHT22;8251;53.568;10.018;2023-07-09T07:27:40;26.10;51.80
16287;DHT22;8251;53.568;10.018;2023-07-09T07:30:08;26.10;51.80
16287;DHT22;8251;53.568;10.018;2023-07-09T07:32:37;26.10;51.70
16287;DHT22;8251;53.568;10.018;2023-07-09T07:35:05;26.20;51.70
16287;DHT22;8251;53.568;10.018;2023-07-09T07:37:32;26.20;52.50
16287;DHT22;8251;53.568;10.018;2023-07-09T07:39:58;26.30;51.60
16287;DHT22;8251;53.568;10.018;2023-07-09T07:42:27;26.40;51.80
16287;DHT22;8251;53.568;10.018;2023-07-09T07:44:55;26.50;52.10
16287;DHT22;8251;53.568;10.018;2023-07-09T07:47:21;26.60;51.60
16287;DHT22;8251;53.568;10.018;2023-07-09T07:49:48;26.70;51.70
16287;DHT22;8251;53.568;10.018;2023-07-09T07:52:15;26.80;51.50
16287;DHT22;8251;53.568;10.018;2023-07-09T07:54:42;26.90;51.20
16287;DHT22;8251;53.568;10.018;2023-07-09T07:57:09;27.00;50.80
16287;DHT22;8251;53.568;10.018;2023-07-09T07:59:38;27.10;51.00
16287;DHT22;8251;53.568;10.018;2023-07-09T08:02:06;27.30;51.00
16287;DHT22;8251;53.568;10.018;2023-07-09T08:04:33;27.40;50.80
16287;DHT22;8251;53.568;10.018;2023-07-09T08:07:01;27.60;51.20
16287;DHT22;8251;53.568;10.018;2023-07-09T08:09:28;27.70;51.30
16287;DHT22;8251;53.568;10.018;2023-07-09T08:11:56;27.80;50.60
16287;DHT22;8251;53.568;10.018;2023-07-09T08:14:22;27.90;50.20
16287;DHT22;8251;53.568;10.018;2023-07-09T08:16:50;28.00;50.00
16287;DHT22;8251;53.568;10.018;2023-07-09T08:19:18;28.20;50.10
16287;DHT22;8251;53.568;10.018;2023-07-09T08:21:45;28.40;49.70
16287;DHT22;8251;53.568;10.018;2023-07-09T08:24:13;28.50;49.70
16287;DHT22;8251;53.568;10.018;2023-07-09T08:26:40;28.70;49.50
16287;DHT22;8251;53.568;10.018;2023-07-09T08:29:07;28.90;48.70
16287;DHT22;8251;53.568;10.018;2023-07-09T08:31:35;29.10;48.90
16287;DHT22;8251;53.568;10.018;2023-07-09T08:34:05;29.30;48.60
16287;DHT22;8251;53.568;10.018;2023-07-09T08:36:33;29.50;47.70
16287;DHT22;8251;53.568;10.018;2023-07-09T08:39:01;29.80;47.30
16287;DHT22;8251;53.568;10.018;2023-07-09T08:41:37;30.10;47.40
16287;DHT22;8251;53.568;10.018;2023-07-09T08:44:20;30.50;46.80
16287;DHT22;8251;53.568;10.018;2023-07-09T08:46:57;30.80;46.00
16287;DHT22;8251;53.568;10.018;2023-07-09T08:49:35;31.40;45.80
16287;DHT22;8251;53.568;10.018;2023-07-09T08:52:19;31.90;44.10
16287;DHT22;8251;53.568;10.018;2023-07-09T08:54:50;32.60;43.00
16287;DHT22;8251;53.568;10.018;2023-07-09T08:57:21;33.30;42.20
16287;DHT22;8251;53.568;10.018;2023-07-09T08:59:50;33.90;41.20
16287;DHT22;8251;53.568;10.018;2023-07-09T09:02:29;34.30;39.80
16287;DHT22;8251;53.568;10.018;2023-07-09T09:04:58;34.70;39.20
16287;DHT22;8251;53.568;10.018;2023-07-09T09:07:35;35.00;39.10
16287;DHT22;8251;53.568;10.018;2023-07-09T09:10:07;35.30;39.10
16287;DHT22;8251;53.568;10.018;2023-07-09T09:12:38;35.50;38.40
16287;DHT22;8251;53.568;10.018;2023-07-09T09:15:13;35.60;38.70
16287;DHT22;8251;53.568;10.018;2023-07-09T09:17:41;35.60;38.40
16287;DHT22;8251;53.568;10.018;2023-07-09T09:20:15;35.60;38.40
16287;DHT22;8251;53.568;10.018;2023-07-09T09:22:47;35.60;38.70
16287;DHT22;8251;53.568;10.018;2023-07-09T09:25:21;35.60;38.90
16287;DHT22;8251;53.568;10.018;2023-07-09T09:27:50;35.50;39.00
16287;DHT22;8251;53.568;10.018;2023-07-09T09:30:22;35.50;38.30
16287;DHT22;8251;53.568;10.018;2023-07-09T09:32:53;35.50;38.20
16287;DHT22;8251;53.568;10.018;2023-07-09T09:35:26;35.40;38.60
16287;DHT22;8251;53.568;10.018;2023-07-09T09:37:55;35.40;38.80
16287;DHT22;8251;53.568;10.018;2023-07-09T09:40:24;35.40;39.50
16287;DHT22;8251;53.568;10.018;2023-07-09T09:42:52;35.40;39.30
16287;DHT22;8251;53.568;10.018;2023-07-09T09:45:28;35.30;39.30
16287;DHT22;8251;53.568;10.018;2023-07-09T09:47:59;35.30;39.20
16287;DHT22;8251;53.568;10.018;2023-07-09T09:50:32;35.30;39.10
16287;DHT22;8251;53.568;10.018;2023-07-09T09:52:59;35.40;39.10
16287;DHT22;8251;53.568;10.018;2023-07-09T09:55:29;35.40;39.10
16287;DHT22;8251;53.568;10.018;2023-07-09T09:57:56;35.50;39.30
16287;DHT22;8251;53.568;10.018;2023-07-09T10:00:27;35.60;39.10
16287;DHT22;8251;53.568;10.018;2023-07-09T10:02:58;35.60;38.40
16287;DHT22;8251;53.568;10.018;2023-07-09T10:05:32;35.70;38.50
16287;DHT22;8251;53.568;10.018;2023-07-09T10:08:03;35.80;38.10
16287;DHT22;8251;53.568;10.018;2023-07-09T10:10:33;35.90;37.90
16287;DHT22;8251;53.568;10.018;2023-07-09T10:13:07;36.00;37.70
16287;DHT22;8251;53.568;10.018;2023-07-09T10:15:42;36.20;37.70
16287;DHT22;8251;53.568;10.018;2023-07-09T10:18:19;36.30;37.70
16287;DHT22;8251;53.568;10.018;2023-07-09T10:21:03;36.40;38.20
16287;DHT22;8251;53.568;10.018;2023-07-09T10:23:36;36.60;37.70
16287;DHT22;8251;53.568;10.018;2023-07-09T10:26:10;36.70;37.50
16287;DHT22;8251;53.568;10.018;2023-07-09T10:28:55;36.80;36.90
16287;DHT22;8251;53.568;10.018;2023-07-09T10:31:33;37.00;36.80
16287;DHT22;8251;53.568;10.018;2023-07-09T10:34:12;37.10;37.00
16287;DHT22;8251;53.568;10.018;2023-07-09T10:36:58;37.20;36.20
16287;DHT22;8251;53.568;10.018;2023-07-09T10:39:31;37.30;35.50
16287;DHT22;8251;53.568;10.018;2023-07-09T10:42:00;37.30;35.30
16287;DHT22;8251;53.568;10.018;2023-07-09T10:44:31;37.40;35.60
16287;DHT22;8251;53.568;10.018;2023-07-09T10:47:03;37.50;35.90
16287;DHT22;8251;53.568;10.018;2023-07-09T10:49:36;37.70;35.40
16287;DHT22;8251;53.568;10.018;2023-07-09T10:52:11;37.80;35.10
16287;DHT22;8251;53.568;10.018;2023-07-09T10:54:46;37.90;35.10
16287;DHT22;8251;53.568;10.018;2023-07-09T10:57:28;38.10;35.30
16287;DHT22;8251;53.568;10.018;2023-07-09T10:59:58;38.20;34.20
16287;DHT22;8251;53.568;10.018;2023-07-09T11:02:27;38.40;33.60
16287;DHT22;8251;53.568;10.018;2023-07-09T11:04:56;38.40;33.30
16287;DHT22;8251;53.568;10.018;2023-07-09T11:07:31;38.50;33.60
16287;DHT22;8251;53.568;10.018;2023-07-09T11:10:01;38.50;33.00
16287;DHT22;8251;53.568;10.018;2023-07-09T11:12:34;38.40;33.30
16287;DHT22;8251;53.568;10.018;2023-07-09T11:15:05;38.50;32.90
16287;DHT22;8251;53.568;10.018;2023-07-09T11:17:37;38.50;32.50
16287;DHT22;8251;53.568;10.018;2023-07-09T11:20:15;38.50;32.50
16287;DHT22;8251;53.568;10.018;2023-07-09T11:22:52;38.50;32.10
16287;DHT22;8251;53.568;10.018;2023-07-09T11:25:28;38.60;32.90
16287;DHT22;8251;53.568;10.018;2023-07-09T11:28:03;38.60;32.80
16287;DHT22;8251;53.568;10.018;2023-07-09T11:30:30;38.60;33.00
16287;DHT22;8251;53.568;10.018;2023-07-09T11:32:58;38.70;33.10
16287;DHT22;8251;53.568;10.018;2023-07-09T11:35:27;38.80;33.10
16287;DHT22;8251;53.568;10.018;2023-07-09T11:37:56;38.90;33.40
16287;DHT22;8251;53.568;10.018;2023-07-09T11:40:33;38.90;33.30
16287;DHT22;8251;53.568;10.018;2023-07-09T11:43:00;38.90;33.20
16287;DHT22;8251;53.568;10.018;2023-07-09T11:45:30;38.90;33.10
16287;DHT22;8251;53.568;10.018;2023-07-09T11:48:01;39.10;33.30
16287;DHT22;8251;53.568;10.018;2023-07-09T11:50:36;39.00;32.60
16287;DHT22;8251;53.568;10.018;2023-07-09T11:53:28;39.00;32.70
16287;DHT22;8251;53.568;10.018;2023-07-09T11:55:57;39.00;33.90
16287;DHT22;8251;53.568;10.018;2023-07-09T11:58:23;39.00;33.20
16287;DHT22;8251;53.568;10.018;2023-07-09T12:00:52;39.00;32.20
16287;DHT22;8251;53.568;10.018;2023-07-09T12:03:23;39.00;31.80
16287;DHT22;8251;53.568;10.018;2023-07-09T12:05:52;39.00;30.70
16287;DHT22;8251;53.568;10.018;2023-07-09T12:08:25;38.90;31.10
16287;DHT22;8251;53.568;10.018;2023-07-09T12:10:53;38.90;31.70
16287;DHT22;8251;53.568;10.018;2023-07-09T12:13:21;38.80;31.70
16287;DHT22;8251;53.568;10.018;2023-07-09T12:15:48;38.80;31.30
16287;DHT22;8251;53.568;10.018;2023-07-09T12:18:16;38.70;30.90
16287;DHT22;8251;53.568;10.018;2023-07-09T12:24:17;38.80;30.50
16287;DHT22;8251;53.568;10.018;2023-07-09T12:26:48;38.80;30.80
16287;DHT22;8251;53.568;10.018;2023-07-09T12:29:15;38.70;30.50
16287;DHT22;8251;53.568;10.018;2023-07-09T12:31:42;38.70;29.90
16287;DHT22;8251;53.568;10.018;2023-07-09T12:34:12;38.60;30.00
16287;DHT22;8251;53.568;10.018;2023-07-09T12:36:43;38.40;30.10
16287;DHT22;8251;53.568;10.018;2023-07-09T12:39:12;38.30;30.50
16287;DHT22;8251;53.568;10.018;2023-07-09T12:41:40;38.10;30.70
16287;DHT22;8251;53.568;10.018;2023-07-09T12:44:15;38.10;33.30
16287;DHT22;8251;53.568;10.018;2023-07-09T12:46:43;38.10;30.80
16287;DHT22;8251;53.568;10.018;2023-07-09T12:49:22;38.00;30.80
16287;DHT22;8251;53.568;10.018;2023-07-09T12:51:50;38.10;30.30
16287;DHT22;8251;53.568;10.018;2023-07-09T12:54:21;38.00;29.70
16287;DHT22;8251;53.568;10.018;2023-07-09T12:56:51;38.00;29.10
16287;DHT22;8251;53.568;10.018;2023-07-09T12:59:19;38.00;29.00
16287;DHT22;8251;53.568;10.018;2023-07-09T13:02:01;38.00;28.70
16287;DHT22;8251;53.568;10.018;2023-07-09T13:04:30;38.00;29.60
16287;DHT22;8251;53.568;10.018;2023-07-09T13:06:57;38.00;30.00
16287;DHT22;8251;53.568;10.018;2023-07-09T13:09:27;37.90;30.10
16287;DHT22;8251;53.568;10.018;2023-07-09T13:11:54;37.80;29.60
16287;DHT22;8251;53.568;10.018;2023-07-09T13:14:24;37.80;30.20
16287;DHT22;8251;53.568;10.018;2023-07-09T13:16:51;37.80;30.70
16287;DHT22;8251;53.568;10.018;2023-07-09T13:19:19;37.80;30.00
16287;DHT22;8251;53.568;10.018;2023-07-09T13:21:47;37.80;29.80
16287;DHT22;8251;53.568;10.018;2023-07-09T13:24:17;37.80;29.90
16287;DHT22;8251;53.568;10.018;2023-07-09T13:26:47;37.70;29.40
16287;DHT22;8251;53.568;10.018;2023-07-09T13:29:15;37.60;29.10
16287;DHT22;8251;53.568;10.018;2023-07-09T13:31:43;37.40;30.10
16287;DHT22;8251;53.568;10.018;2023-07-09T13:34:18;37.30;31.30
16287;DHT22;8251;53.568;10.018;2023-07-09T13:36:45;37.20;30.70
16287;DHT22;8251;53.568;10.018;2023-07-09T13:39:13;37.10;30.60
16287;DHT22;8251;53.568;10.018;2023-07-09T13:41:41;37.10;31.00
16287;DHT22;8251;53.568;10.018;2023-07-09T13:44:13;37.10;31.20
16287;DHT22;8251;53.568;10.018;2023-07-09T13:46:42;37.10;31.40
16287;DHT22;8251;53.568;10.018;2023-07-09T13:49:10;37.20;31.80
16287;DHT22;8251;53.568;10.018;2023-07-09T13:51:41;37.20;31.00
16287;DHT22;8251;53.568;10.018;2023-07-09T13:54:15;37.20;30.50
16287;DHT22;8251;53.568;10.018;2023-07-09T13:56:42;37.20;30.60
16287;DHT22;8251;53.568;10.018;2023-07-09T13:59:19;37.10;31.20
16287;DHT22;8251;53.568;10.018;2023-07-09T14:01:46;37.10;31.10
16287;DHT22;8251;53.568;10.018;2023-07-09T14:04:15;37.10;30.80
16287;DHT22;8251;53.568;10.018;2023-07-09T14:06:43;37.10;30.30
16287;DHT22;8251;53.568;10.018;2023-07-09T14:09:11;37.00;30.30
16287;DHT22;8251;53.568;10.018;2023-07-09T14:11:41;37.00;30.50
16287;DHT22;8251;53.568;10.018;2023-07-09T14:14:17;36.90;30.20
16287;DHT22;8251;53.568;10.018;2023-07-09T14:16:46;36.80;30.50
16287;DHT22;8251;53.568;10.018;2023-07-09T14:19:15;36.80;31.20
16287;DHT22;8251;53.568;10.018;2023-07-09T14:21:43;36.70;30.90
16287;DHT22;8251;53.568;10.018;2023-07-09T14:24:19;36.70;31.60
16287;DHT22;8251;53.568;10.018;2023-07-09T14:26:46;36.70;30.70
16287;DHT22;8251;53.568;10.018;2023-07-09T14:29:16;36.60;30.70
16287;DHT22;8251;53.568;10.018;2023-07-09T14:31:45;36.60;30.90
16287;DHT22;8251;53.568;10.018;2023-07-09T14:34:19;36.50;30.90
16287;DHT22;8251;53.568;10.018;2023-07-09T14:36:47;36.50;31.10
16287;DHT22;8251;53.568;10.018;2023-07-09T14:39:14;36.40;31.20
16287;DHT22;8251;53.568;10.018;2023-07-09T14:41:42;36.40;32.10
16287;DHT22;8251;53.568;10.018;2023-07-09T14:44:26;36.30;31.50
16287;DHT22;8251;53.568;10.018;2023-07-09T14:46:57;36.40;32.30
16287;DHT22;8251;53.568;10.018;2023-07-09T14:49:30;36.30;31.20
16287;DHT22;8251;53.568;10.018;2023-07-09T14:51:59;36.30;31.60
16287;DHT22;8251;53.568;10.018;2023-07-09T14:54:27;36.30;31.40
16287;DHT22;8251;53.568;10.018;2023-07-09T14:56:55;36.30;31.00
16287;DHT22;8251;53.568;10.018;2023-07-09T14:59:22;36.30;31.60
16287;DHT22;8251;53.568;10.018;2023-07-09T15:01:52;36.30;32.00
16287;DHT22;8251;53.568;10.018;2023-07-09T15:04:27;36.30;30.30
16287;DHT22;8251;53.568;10.018;2023-07-09T15:06:55;36.20;30.80
16287;DHT22;8251;53.568;10.018;2023-07-09T15:09:24;36.30;31.90
16287;DHT22;8251;53.568;10.018;2023-07-09T15:11:53;36.30;32.10
16287;DHT22;8251;53.568;10.018;2023-07-09T15:14:20;36.30;32.20
16287;DHT22;8251;53.568;10.018;2023-07-09T15:16:48;36.30;32.00
16287;DHT22;8251;53.568;10.018;2023-07-09T15:19:18;36.20;31.70
16287;DHT22;8251;53.568;10.018;2023-07-09T15:21:45;36.10;32.20
16287;DHT22;8251;53.568;10.018;2023-07-09T15:24:20;36.10;32.70
16287;DHT22;8251;53.568;10.018;2023-07-09T15:26:50;36.10;32.50
16287;DHT22;8251;53.568;10.018;2023-07-09T15:29:19;36.10;32.50
16287;DHT22;8251;53.568;10.018;2023-07-09T15:31:46;36.10;32.20
16287;DHT22;8251;53.568;10.018;2023-07-09T15:34:14;36.00;32.20
16287;DHT22;8251;53.568;10.018;2023-07-09T15:36:44;36.00;32.00
16287;DHT22;8251;53.568;10.018;2023-07-09T15:39:12;35.90;32.90
16287;DHT22;8251;53.568;10.018;2023-07-09T15:41:39;35.90;32.90
16287;DHT22;8251;53.568;10.018;2023-07-09T15:44:09;35.90;33.20
16287;DHT22;8251;53.568;10.018;2023-07-09T15:46:36;35.80;32.90